sensor_id;sensor_type;location;lat;lon;timestamp;P1;durP1;ratioP1;P2;durP2;ratioP2
20970;SDS011;10644;48.834;10.088;2023-03-01T00:00:07;61.33;;;27.05;;
20970;SDS011;10644;48.834;10.088;2023-03-01T00:02:54;54.45;;;24.08;;
20970;SDS011;10644;48.834;10.088;2023-03-01T00:05:30;76.70;;;32.83;;
20970;SDS011;10644;48.834;10.088;2023-03-01T00:13:27;116.10;;;43.17;;
20970;SDS011;10644;48.834;10.088;2023-03-01T00:16:01;134.00;;;52.70;;
20970;SDS011;10644;48.834;10.088;2023-03-01T00:18:35;74.32;;;32.25;;
20970;SDS011;10644;48.834;10.088;2023-03-01T00:21:01;69.60;;;31.27;;
20970;SDS011;10644;48.834;10.088;2023-03-01T00:26:13;53.90;;;25.60;;
20970;SDS011;10644;48.834;10.088;2023-03-01T00:28:41;98.50;;;46.05;;
20970;SDS011;10644;48.834;10.088;2023-03-01T00:31:11;49.88;;;20.50;;
20970;SDS011;10644;48.834;10.088;2023-03-01T00:33:44;34.40;;;17.63;;
20970;SDS011;10644;48.834;10.088;2023-03-01T00:36:13;40.05;;;18.30;;
20970;SDS011;10644;48.834;10.088;2023-03-01T00:38:44;33.33;;;16.27;;
20970;SDS011;10644;48.834;10.088;2023-03-01T00:44:42;33.97;;;17.13;;
20970;SDS011;10644;48.834;10.088;2023-03-01T00:47:09;36.72;;;18.63;;
20970;SDS011;10644;48.834;10.088;2023-03-01T00:49:39;37.25;;;17.92;;
20970;SDS011;10644;48.834;10.088;2023-03-01T00:52:14;36.13;;;17.58;;
20970;SDS011;10644;48.834;10.088;2023-03-01T00:54:40;40.08;;;18.45;;
20970;SDS011;10644;48.834;10.088;2023-03-01T00:57:07;36.95;;;16.63;;
20970;SDS011;10644;48.834;10.088;2023-03-01T01:02:29;34.88;;;17.58;;
20970;SDS011;10644;48.834;10.088;2023-03-01T01:08:02;32.33;;;15.73;;
20970;SDS011;10644;48.834;10.088;2023-03-01T01:13:16;38.35;;;16.45;;
20970;SDS011;10644;48.834;10.088;2023-03-01T01:15:52;33.63;;;17.20;;
20970;SDS011;10644;48.834;10.088;2023-03-01T01:18:19;33.25;;;17.50;;
20970;SDS011;10644;48.834;10.088;2023-03-01T01:26:23;42.15;;;18.85;;
20970;SDS011;10644;48.834;10.088;2023-03-01T01:28:54;39.42;;;18.27;;
20970;SDS011;10644;48.834;10.088;2023-03-01T01:31:21;33.40;;;17.23;;
20970;SDS011;10644;48.834;10.088;2023-03-01T01:33:51;32.50;;;17.15;;
20970;SDS011;10644;48.834;10.088;2023-03-01T01:36:27;33.50;;;16.77;;
20970;SDS011;10644;48.834;10.088;2023-03-01T01:51:35;40.47;;;17.33;;
20970;SDS011;10644;48.834;10.088;2023-03-01T01:54:10;37.03;;;17.02;;
20970;SDS011;10644;48.834;10.088;2023-03-01T01:56:54;48.40;;;20.00;;
20970;SDS011;10644;48.834;10.088;2023-03-01T01:59:27;36.03;;;16.48;;
20970;SDS011;10644;48.834;10.088;2023-03-01T02:01:58;34.80;;;17.55;;
20970;SDS011;10644;48.834;10.088;2023-03-01T02:04:26;40.45;;;17.60;;
20970;SDS011;10644;48.834;10.088;2023-03-01T02:12:56;35.28;;;17.48;;
20970;SDS011;10644;48.834;10.088;2023-03-01T02:18:21;39.40;;;17.52;;
20970;SDS011;10644;48.834;10.088;2023-03-01T02:23:38;32.30;;;17.20;;
20970;SDS011;10644;48.834;10.088;2023-03-01T02:32:50;38.60;;;17.73;;
20970;SDS011;10644;48.834;10.088;2023-03-01T02:35:22;37.67;;;17.77;;
20970;SDS011;10644;48.834;10.088;2023-03-01T02:37:54;34.08;;;16.63;;
20970;SDS011;10644;48.834;10.088;2023-03-01T02:48:48;39.63;;;17.75;;
20970;SDS011;10644;48.834;10.088;2023-03-01T02:51:41;36.10;;;17.92;;
20970;SDS011;10644;48.834;10.088;2023-03-01T02:57:40;42.83;;;20.42;;
20970;SDS011;10644;48.834;10.088;2023-03-01T03:00:18;37.88;;;19.05;;
20970;SDS011;10644;48.834;10.088;2023-03-01T03:05:58;40.67;;;18.90;;
20970;SDS011;10644;48.834;10.088;2023-03-01T03:08:33;42.60;;;19.63;;
20970;SDS011;10644;48.834;10.088;2023-03-01T03:11:01;36.45;;;17.13;;
20970;SDS011;10644;48.834;10.088;2023-03-01T03:13:36;34.90;;;18.35;;
20970;SDS011;10644;48.834;10.088;2023-03-01T03:16:05;39.35;;;18.83;;
20970;SDS011;10644;48.834;10.088;2023-03-01T03:18:32;35.95;;;16.48;;
20970;SDS011;10644;48.834;10.088;2023-03-01T03:21:06;32.42;;;14.57;;
20970;SDS011;10644;48.834;10.088;2023-03-01T03:23:43;40.58;;;18.05;;
20970;SDS011;10644;48.834;10.088;2023-03-01T03:29:15;38.88;;;18.00;;
20970;SDS011;10644;48.834;10.088;2023-03-01T03:31:42;35.05;;;18.95;;
20970;SDS011;10644;48.834;10.088;2023-03-01T03:37:00;42.35;;;20.20;;
20970;SDS011;10644;48.834;10.088;2023-03-01T03:39:27;36.67;;;17.85;;
20970;SDS011;10644;48.834;10.088;2023-03-01T03:41:59;38.67;;;18.35;;
20970;SDS011;10644;48.834;10.088;2023-03-01T03:44:24;31.75;;;16.67;;
20970;SDS011;10644;48.834;10.088;2023-03-01T03:50:17;36.78;;;16.77;;
20970;SDS011;10644;48.834;10.088;2023-03-01T03:52:59;36.58;;;19.23;;
20970;SDS011;10644;48.834;10.088;2023-03-01T03:55:27;35.80;;;17.10;;
20970;SDS011;10644;48.834;10.088;2023-03-01T04:03:30;35.42;;;16.77;;
20970;SDS011;10644;48.834;10.088;2023-03-01T04:06:04;41.35;;;20.25;;
20970;SDS011;10644;48.834;10.088;2023-03-01T04:11:18;42.30;;;19.77;;
20970;SDS011;10644;48.834;10.088;2023-03-01T04:13:54;34.88;;;17.60;;
20970;SDS011;10644;48.834;10.088;2023-03-01T04:16:22;40.97;;;18.88;;
20970;SDS011;10644;48.834;10.088;2023-03-01T04:18:58;28.83;;;12.30;;
20970;SDS011;10644;48.834;10.088;2023-03-01T04:21:25;38.50;;;17.63;;
20970;SDS011;10644;48.834;10.088;2023-03-01T04:29:16;38.08;;;19.27;;
20970;SDS011;10644;48.834;10.088;2023-03-01T04:31:49;45.60;;;17.87;;
20970;SDS011;10644;48.834;10.088;2023-03-01T04:34:14;42.17;;;18.92;;
20970;SDS011;10644;48.834;10.088;2023-03-01T04:36:39;37.50;;;18.70;;
20970;SDS011;10644;48.834;10.088;2023-03-01T04:39:07;41.43;;;20.23;;
20970;SDS011;10644;48.834;10.088;2023-03-01T04:41:39;35.67;;;17.90;;
20970;SDS011;10644;48.834;10.088;2023-03-01T04:44:10;41.22;;;19.05;;
20970;SDS011;10644;48.834;10.088;2023-03-01T04:46:38;36.20;;;17.27;;
20970;SDS011;10644;48.834;10.088;2023-03-01T04:49:04;36.53;;;18.83;;
20970;SDS011;10644;48.834;10.088;2023-03-01T04:51:30;40.97;;;18.52;;
20970;SDS011;10644;48.834;10.088;2023-03-01T04:53:58;38.30;;;19.83;;
20970;SDS011;10644;48.834;10.088;2023-03-01T04:56:41;50.00;;;19.73;;
20970;SDS011;10644;48.834;10.088;2023-03-01T04:59:18;39.28;;;18.08;;
20970;SDS011;10644;48.834;10.088;2023-03-01T05:01:53;39.80;;;19.30;;
20970;SDS011;10644;48.834;10.088;2023-03-01T05:13:07;36.20;;;17.45;;
20970;SDS011;10644;48.834;10.088;2023-03-01T05:15:34;52.28;;;20.50;;
20970;SDS011;10644;48.834;10.088;2023-03-01T05:18:01;39.78;;;18.40;;
20970;SDS011;10644;48.834;10.088;2023-03-01T05:20:31;35.97;;;16.17;;
20970;SDS011;10644;48.834;10.088;2023-03-01T05:23:03;34.63;;;16.08;;
20970;SDS011;10644;48.834;10.088;2023-03-01T05:25:33;52.40;;;19.50;;
20970;SDS011;10644;48.834;10.088;2023-03-01T05:28:13;41.22;;;19.58;;
20970;SDS011;10644;48.834;10.088;2023-03-01T05:30:39;38.22;;;19.35;;
20970;SDS011;10644;48.834;10.088;2023-03-01T05:33:13;38.85;;;18.33;;
20970;SDS011;10644;48.834;10.088;2023-03-01T05:35:44;43.15;;;19.67;;
20970;SDS011;10644;48.834;10.088;2023-03-01T05:38:11;47.47;;;20.67;;
20970;SDS011;10644;48.834;10.088;2023-03-01T05:40:51;42.03;;;19.77;;
20970;SDS011;10644;48.834;10.088;2023-03-01T05:46:01;47.05;;;20.38;;
20970;SDS011;10644;48.834;10.088;2023-03-01T05:48:43;37.87;;;20.57;;
20970;SDS011;10644;48.834;10.088;2023-03-01T05:51:17;36.60;;;17.08;;
20970;SDS011;10644;48.834;10.088;2023-03-01T05:53:57;43.00;;;17.42;;
20970;SDS011;10644;48.834;10.088;2023-03-01T05:56:29;42.10;;;20.10;;
20970;SDS011;10644;48.834;10.088;2023-03-01T05:59:01;39.08;;;18.55;;
20970;SDS011;10644;48.834;10.088;2023-03-01T06:01:32;72.35;;;22.90;;
20970;SDS011;10644;48.834;10.088;2023-03-01T06:04:11;38.95;;;20.45;;
20970;SDS011;10644;48.834;10.088;2023-03-01T06:09:59;48.35;;;19.95;;
20970;SDS011;10644;48.834;10.088;2023-03-01T06:12:25;45.28;;;19.58;;
20970;SDS011;10644;48.834;10.088;2023-03-01T06:17:40;39.75;;;19.67;;
20970;SDS011;10644;48.834;10.088;2023-03-01T06:20:14;41.78;;;18.90;;
20970;SDS011;10644;48.834;10.088;2023-03-01T06:22:55;48.22;;;21.15;;
20970;SDS011;10644;48.834;10.088;2023-03-01T06:28:07;44.20;;;20.25;;
20970;SDS011;10644;48.834;10.088;2023-03-01T06:30:45;50.40;;;21.90;;
20970;SDS011;10644;48.834;10.088;2023-03-01T06:35:57;68.68;;;23.45;;
20970;SDS011;10644;48.834;10.088;2023-03-01T06:38:34;44.80;;;20.75;;
20970;SDS011;10644;48.834;10.088;2023-03-01T06:43:58;44.17;;;20.05;;
20970;SDS011;10644;48.834;10.088;2023-03-01T06:46:35;47.78;;;21.58;;
20970;SDS011;10644;48.834;10.088;2023-03-01T06:51:51;49.70;;;21.50;;
20970;SDS011;10644;48.834;10.088;2023-03-01T06:54:19;43.65;;;20.67;;
20970;SDS011;10644;48.834;10.088;2023-03-01T06:56:56;40.78;;;20.55;;
20970;SDS011;10644;48.834;10.088;2023-03-01T06:59:21;47.88;;;21.40;;
20970;SDS011;10644;48.834;10.088;2023-03-01T07:01:47;52.43;;;20.67;;
20970;SDS011;10644;48.834;10.088;2023-03-01T07:12:02;49.17;;;20.55;;
20970;SDS011;10644;48.834;10.088;2023-03-01T07:14:27;43.38;;;21.05;;
20970;SDS011;10644;48.834;10.088;2023-03-01T07:19:26;39.20;;;19.58;;
20970;SDS011;10644;48.834;10.088;2023-03-01T07:21:56;44.25;;;20.50;;
20970;SDS011;10644;48.834;10.088;2023-03-01T07:24:34;45.30;;;21.90;;
20970;SDS011;10644;48.834;10.088;2023-03-01T07:27:01;44.65;;;20.70;;
20970;SDS011;10644;48.834;10.088;2023-03-01T07:29:26;33.10;;;14.30;;
20970;SDS011;10644;48.834;10.088;2023-03-01T07:31:56;51.25;;;19.83;;
20970;SDS011;10644;48.834;10.088;2023-03-01T07:34:30;49.45;;;19.83;;
20970;SDS011;10644;48.834;10.088;2023-03-01T07:36:55;41.70;;;20.60;;
20970;SDS011;10644;48.834;10.088;2023-03-01T07:39:23;45.73;;;21.57;;
20970;SDS011;10644;48.834;10.088;2023-03-01T07:41:50;36.53;;;18.83;;
20970;SDS011;10644;48.834;10.088;2023-03-01T07:47:21;40.05;;;19.00;;
20970;SDS011;10644;48.834;10.088;2023-03-01T07:50:02;41.38;;;19.20;;
20970;SDS011;10644;48.834;10.088;2023-03-01T07:52:38;25.02;;;11.45;;
20970;SDS011;10644;48.834;10.088;2023-03-01T07:55:03;38.17;;;17.20;;
20970;SDS011;10644;48.834;10.088;2023-03-01T07:57:39;42.28;;;19.88;;
20970;SDS011;10644;48.834;10.088;2023-03-01T08:02:47;39.40;;;19.48;;
20970;SDS011;10644;48.834;10.088;2023-03-01T08:05:19;43.63;;;19.80;;
20970;SDS011;10644;48.834;10.088;2023-03-01T08:08:01;39.60;;;19.73;;
20970;SDS011;10644;48.834;10.088;2023-03-01T08:10:32;45.75;;;19.85;;
20970;SDS011;10644;48.834;10.088;2023-03-01T08:29:48;38.78;;;19.02;;
20970;SDS011;10644;48.834;10.088;2023-03-01T08:37:46;51.65;;;21.13;;
20970;SDS011;10644;48.834;10.088;2023-03-01T08:42:57;39.55;;;19.23;;
20970;SDS011;10644;48.834;10.088;2023-03-01T08:45:23;37.47;;;16.00;;
20970;SDS011;10644;48.834;10.088;2023-03-01T08:47:59;39.13;;;16.77;;
20970;SDS011;10644;48.834;10.088;2023-03-01T08:50:33;34.88;;;16.27;;
20970;SDS011;10644;48.834;10.088;2023-03-01T08:53:07;35.13;;;18.73;;
20970;SDS011;10644;48.834;10.088;2023-03-01T08:55:39;43.58;;;20.17;;
20970;SDS011;10644;48.834;10.088;2023-03-01T08:58:05;43.17;;;19.33;;
20970;SDS011;10644;48.834;10.088;2023-03-01T09:00:33;36.03;;;18.63;;
20970;SDS011;10644;48.834;10.088;2023-03-01T09:03:00;38.50;;;18.95;;
20970;SDS011;10644;48.834;10.088;2023-03-01T09:05:35;28.97;;;17.23;;
20970;SDS011;10644;48.834;10.088;2023-03-01T09:13:21;40.65;;;19.08;;
20970;SDS011;10644;48.834;10.088;2023-03-01T09:15:50;22.90;;;11.82;;
20970;SDS011;10644;48.834;10.088;2023-03-01T09:18:24;35.72;;;19.02;;
20970;SDS011;10644;48.834;10.088;2023-03-01T09:20:49;34.33;;;18.27;;
20970;SDS011;10644;48.834;10.088;2023-03-01T09:23:21;44.43;;;16.83;;
20970;SDS011;10644;48.834;10.088;2023-03-01T09:31:07;41.38;;;16.83;;
20970;SDS011;10644;48.834;10.088;2023-03-01T09:33:45;29.63;;;13.10;;
20970;SDS011;10644;48.834;10.088;2023-03-01T09:39:06;34.33;;;16.10;;
20970;SDS011;10644;48.834;10.088;2023-03-01T09:47:41;34.92;;;16.73;;
20970;SDS011;10644;48.834;10.088;2023-03-01T09:50:20;39.83;;;18.37;;
20970;SDS011;10644;48.834;10.088;2023-03-01T09:52:58;34.05;;;15.18;;
20970;SDS011;10644;48.834;10.088;2023-03-01T09:55:37;35.03;;;17.88;;
20970;SDS011;10644;48.834;10.088;2023-03-01T10:07:21;27.88;;;14.57;;
20970;SDS011;10644;48.834;10.088;2023-03-01T10:10:08;19.85;;;10.07;;
20970;SDS011;10644;48.834;10.088;2023-03-01T10:12:54;31.05;;;14.25;;
20970;SDS011;10644;48.834;10.088;2023-03-01T10:15:55;33.75;;;17.98;;
20970;SDS011;10644;48.834;10.088;2023-03-01T10:18:22;37.50;;;19.15;;
20970;SDS011;10644;48.834;10.088;2023-03-01T10:27:04;24.20;;;12.27;;
20970;SDS011;10644;48.834;10.088;2023-03-01T10:29:38;41.40;;;19.65;;
20970;SDS011;10644;48.834;10.088;2023-03-01T10:35:28;33.00;;;16.58;;
20970;SDS011;10644;48.834;10.088;2023-03-01T10:46:25;23.67;;;10.57;;
20970;SDS011;10644;48.834;10.088;2023-03-01T10:49:15;31.30;;;15.73;;
20970;SDS011;10644;48.834;10.088;2023-03-01T10:51:43;27.52;;;15.43;;
20970;SDS011;10644;48.834;10.088;2023-03-01T10:54:33;34.25;;;14.82;;
20970;SDS011;10644;48.834;10.088;2023-03-01T10:57:01;29.73;;;16.60;;
20970;SDS011;10644;48.834;10.088;2023-03-01T10:59:42;29.15;;;16.65;;
20970;SDS011;10644;48.834;10.088;2023-03-01T11:10:35;23.98;;;12.43;;
20970;SDS011;10644;48.834;10.088;2023-03-01T11:16:06;29.58;;;17.75;;
20970;SDS011;10644;48.834;10.088;2023-03-01T11:21:38;28.50;;;14.02;;
20970;SDS011;10644;48.834;10.088;2023-03-01T11:24:06;30.85;;;14.70;;
20970;SDS011;10644;48.834;10.088;2023-03-01T11:26:45;27.77;;;16.98;;
20970;SDS011;10644;48.834;10.088;2023-03-01T11:29:27;25.05;;;10.93;;
20970;SDS011;10644;48.834;10.088;2023-03-01T11:32:30;25.73;;;13.63;;
20970;SDS011;10644;48.834;10.088;2023-03-01T11:35:05;23.27;;;11.90;;
20970;SDS011;10644;48.834;10.088;2023-03-01T11:37:44;16.53;;;8.87;;
20970;SDS011;10644;48.834;10.088;2023-03-01T11:40:38;20.47;;;9.27;;
20970;SDS011;10644;48.834;10.088;2023-03-01T11:43:15;25.63;;;13.93;;
20970;SDS011;10644;48.834;10.088;2023-03-01T11:45:47;23.23;;;14.23;;
20970;SDS011;10644;48.834;10.088;2023-03-01T11:51:42;25.37;;;13.57;;
20970;SDS011;10644;48.834;10.088;2023-03-01T11:54:33;19.90;;;10.53;;
20970;SDS011;10644;48.834;10.088;2023-03-01T12:06:10;23.60;;;12.00;;
20970;SDS011;10644;48.834;10.088;2023-03-01T12:11:56;30.40;;;17.37;;
20970;SDS011;10644;48.834;10.088;2023-03-01T12:43:51;29.67;;;17.20;;
20970;SDS011;10644;48.834;10.088;2023-03-01T12:52:46;24.73;;;12.20;;
20970;SDS011;10644;48.834;10.088;2023-03-01T13:12:50;32.60;;;19.47;;
20970;SDS011;10644;48.834;10.088;2023-03-01T13:21:03;30.70;;;16.60;;
20970;SDS011;10644;48.834;10.088;2023-03-01T13:23:33;28.20;;;16.50;;
20970;SDS011;10644;48.834;10.088;2023-03-01T13:26:19;32.90;;;16.27;;
20970;SDS011;10644;48.834;10.088;2023-03-01T13:37:30;33.10;;;17.67;;
20970;SDS011;10644;48.834;10.088;2023-03-01T13:46:11;27.63;;;11.03;;
20970;SDS011;10644;48.834;10.088;2023-03-01T13:49:00;31.33;;;14.60;;
20970;SDS011;10644;48.834;10.088;2023-03-01T13:51:27;32.73;;;15.30;;
20970;SDS011;10644;48.834;10.088;2023-03-01T13:56:50;28.27;;;15.10;;
20970;SDS011;10644;48.834;10.088;2023-03-01T13:59:22;31.93;;;18.63;;
20970;SDS011;10644;48.834;10.088;2023-03-01T14:01:57;26.67;;;16.60;;
20970;SDS011;10644;48.834;10.088;2023-03-01T14:07:28;29.73;;;13.90;;
20970;SDS011;10644;48.834;10.088;2023-03-01T14:10:03;29.40;;;17.40;;
20970;SDS011;10644;48.834;10.088;2023-03-01T14:16:45;29.87;;;16.57;;
20970;SDS011;10644;48.834;10.088;2023-03-01T14:19:16;30.37;;;13.30;;
20970;SDS011;10644;48.834;10.088;2023-03-01T14:21:47;25.80;;;14.60;;
20970;SDS011;10644;48.834;10.088;2023-03-01T14:24:21;38.67;;;15.10;;
20970;SDS011;10644;48.834;10.088;2023-03-01T14:27:02;26.90;;;14.50;;
20970;SDS011;10644;48.834;10.088;2023-03-01T14:29:35;26.13;;;12.17;;
20970;SDS011;10644;48.834;10.088;2023-03-01T14:32:17;30.23;;;12.43;;
20970;SDS011;10644;48.834;10.088;2023-03-01T14:34:50;27.13;;;12.07;;
20970;SDS011;10644;48.834;10.088;2023-03-01T14:39:49;27.07;;;11.73;;
20970;SDS011;10644;48.834;10.088;2023-03-01T14:42:16;32.03;;;14.93;;
20970;SDS011;10644;48.834;10.088;2023-03-01T14:44:44;29.00;;;14.33;;
20970;SDS011;10644;48.834;10.088;2023-03-01T14:52:45;26.53;;;10.93;;
20970;SDS011;10644;48.834;10.088;2023-03-01T14:58:17;31.77;;;15.67;;
20970;SDS011;10644;48.834;10.088;2023-03-01T15:00:50;34.23;;;17.53;;
20970;SDS011;10644;48.834;10.088;2023-03-01T15:09:33;27.90;;;14.77;;
20970;SDS011;10644;48.834;10.088;2023-03-01T15:12:23;32.03;;;15.60;;
20970;SDS011;10644;48.834;10.088;2023-03-01T15:15:18;26.08;;;10.57;;
20970;SDS011;10644;48.834;10.088;2023-03-01T15:18:06;32.90;;;17.23;;
20970;SDS011;10644;48.834;10.088;2023-03-01T15:20:41;33.17;;;15.40;;
20970;SDS011;10644;48.834;10.088;2023-03-01T15:23:20;29.60;;;14.77;;
20970;SDS011;10644;48.834;10.088;2023-03-01T15:29:22;34.73;;;17.23;;
20970;SDS011;10644;48.834;10.088;2023-03-01T15:41:29;37.33;;;15.33;;
20970;SDS011;10644;48.834;10.088;2023-03-01T15:44:23;34.00;;;16.87;;
20970;SDS011;10644;48.834;10.088;2023-03-01T15:46:49;30.07;;;16.03;;
20970;SDS011;10644;48.834;10.088;2023-03-01T15:52:13;34.42;;;17.05;;
20970;SDS011;10644;48.834;10.088;2023-03-01T15:57:42;28.52;;;13.90;;
20970;SDS011;10644;48.834;10.088;2023-03-01T16:02:52;35.27;;;16.10;;
20970;SDS011;10644;48.834;10.088;2023-03-01T16:08:14;32.30;;;16.17;;
20970;SDS011;10644;48.834;10.088;2023-03-01T16:10:51;28.83;;;16.13;;
20970;SDS011;10644;48.834;10.088;2023-03-01T16:16:07;29.08;;;15.35;;
20970;SDS011;10644;48.834;10.088;2023-03-01T16:18:41;27.42;;;14.23;;
20970;SDS011;10644;48.834;10.088;2023-03-01T16:21:14;36.37;;;14.93;;
20970;SDS011;10644;48.834;10.088;2023-03-01T16:23:44;35.28;;;18.67;;
20970;SDS011;10644;48.834;10.088;2023-03-01T16:26:20;35.10;;;17.67;;
20970;SDS011;10644;48.834;10.088;2023-03-01T16:28:45;33.67;;;16.33;;
20970;SDS011;10644;48.834;10.088;2023-03-01T16:31:16;28.55;;;13.38;;
20970;SDS011;10644;48.834;10.088;2023-03-01T16:33:43;37.15;;;15.70;;
20970;SDS011;10644;48.834;10.088;2023-03-01T16:36:22;36.05;;;19.42;;
20970;SDS011;10644;48.834;10.088;2023-03-01T16:39:04;36.90;;;17.75;;
20970;SDS011;10644;48.834;10.088;2023-03-01T16:41:31;33.30;;;17.55;;
20970;SDS011;10644;48.834;10.088;2023-03-01T16:43:59;32.08;;;15.98;;
20970;SDS011;10644;48.834;10.088;2023-03-01T16:46:25;34.75;;;17.23;;
20970;SDS011;10644;48.834;10.088;2023-03-01T16:49:07;32.25;;;16.98;;
20970;SDS011;10644;48.834;10.088;2023-03-01T16:51:34;33.97;;;13.75;;
20970;SDS011;10644;48.834;10.088;2023-03-01T16:54:18;26.67;;;15.48;;
20970;SDS011;10644;48.834;10.088;2023-03-01T16:56:43;32.80;;;13.30;;
20970;SDS011;10644;48.834;10.088;2023-03-01T16:59:16;33.70;;;15.80;;
20970;SDS011;10644;48.834;10.088;2023-03-01T17:01:43;30.90;;;12.93;;
20970;SDS011;10644;48.834;10.088;2023-03-01T17:07:21;61.10;;;21.45;;
20970;SDS011;10644;48.834;10.088;2023-03-01T17:09:47;53.40;;;21.15;;
20970;SDS011;10644;48.834;10.088;2023-03-01T17:12:18;34.70;;;18.20;;
20970;SDS011;10644;48.834;10.088;2023-03-01T17:14:43;37.60;;;19.02;;
20970;SDS011;10644;48.834;10.088;2023-03-01T17:17:17;48.83;;;19.63;;
20970;SDS011;10644;48.834;10.088;2023-03-01T17:25:35;32.42;;;16.17;;
20970;SDS011;10644;48.834;10.088;2023-03-01T17:28:02;37.47;;;18.23;;
20970;SDS011;10644;48.834;10.088;2023-03-01T17:30:27;37.78;;;17.13;;
20970;SDS011;10644;48.834;10.088;2023-03-01T17:32:54;32.57;;;17.20;;
20970;SDS011;10644;48.834;10.088;2023-03-01T17:36:05;43.10;;;18.08;;
20970;SDS011;10644;48.834;10.088;2023-03-01T17:41:29;39.15;;;20.80;;
20970;SDS011;10644;48.834;10.088;2023-03-01T17:43:56;44.53;;;22.27;;
20970;SDS011;10644;48.834;10.088;2023-03-01T17:46:22;64.80;;;24.25;;
20970;SDS011;10644;48.834;10.088;2023-03-01T17:48:56;72.15;;;26.15;;
20970;SDS011;10644;48.834;10.088;2023-03-01T17:51:26;51.13;;;21.60;;
20970;SDS011;10644;48.834;10.088;2023-03-01T18:02:36;46.00;;;19.08;;
20970;SDS011;10644;48.834;10.088;2023-03-01T18:05:06;49.53;;;21.97;;
20970;SDS011;10644;48.834;10.088;2023-03-01T18:07:35;58.92;;;20.35;;
20970;SDS011;10644;48.834;10.088;2023-03-01T18:10:04;45.70;;;20.20;;
20970;SDS011;10644;48.834;10.088;2023-03-01T18:12:33;40.38;;;20.58;;
20970;SDS011;10644;48.834;10.088;2023-03-01T18:15:05;36.67;;;19.30;;
20970;SDS011;10644;48.834;10.088;2023-03-01T18:17:39;40.28;;;19.98;;
20970;SDS011;10644;48.834;10.088;2023-03-01T18:22:54;39.30;;;17.00;;
20970;SDS011;10644;48.834;10.088;2023-03-01T18:27:47;44.67;;;21.48;;
20970;SDS011;10644;48.834;10.088;2023-03-01T18:30:20;46.30;;;21.03;;
20970;SDS011;10644;48.834;10.088;2023-03-01T18:32:45;42.22;;;19.20;;
20970;SDS011;10644;48.834;10.088;2023-03-01T18:37:42;52.42;;;24.90;;
20970;SDS011;10644;48.834;10.088;2023-03-01T18:40:14;46.63;;;21.80;;
20970;SDS011;10644;48.834;10.088;2023-03-01T18:42:40;56.75;;;22.70;;
20970;SDS011;10644;48.834;10.088;2023-03-01T18:45:06;48.55;;;22.02;;
20970;SDS011;10644;48.834;10.088;2023-03-01T18:50:48;59.60;;;25.13;;
20970;SDS011;10644;48.834;10.088;2023-03-01T18:53:22;50.00;;;25.20;;
20970;SDS011;10644;48.834;10.088;2023-03-01T18:56:04;75.72;;;26.23;;
20970;SDS011;10644;48.834;10.088;2023-03-01T18:58:33;50.22;;;23.88;;
20970;SDS011;10644;48.834;10.088;2023-03-01T19:00:59;71.10;;;28.48;;
20970;SDS011;10644;48.834;10.088;2023-03-01T19:03:40;60.15;;;23.60;;
20970;SDS011;10644;48.834;10.088;2023-03-01T19:08:41;61.20;;;26.48;;
20970;SDS011;10644;48.834;10.088;2023-03-01T19:11:22;47.60;;;21.00;;
20970;SDS011;10644;48.834;10.088;2023-03-01T19:14:06;67.97;;;25.00;;
20970;SDS011;10644;48.834;10.088;2023-03-01T19:16:44;59.22;;;23.15;;
20970;SDS011;10644;48.834;10.088;2023-03-01T19:19:11;42.75;;;22.25;;
20970;SDS011;10644;48.834;10.088;2023-03-01T19:24:34;43.90;;;21.90;;
20970;SDS011;10644;48.834;10.088;2023-03-01T19:43:22;107.30;;;30.33;;
20970;SDS011;10644;48.834;10.088;2023-03-01T19:45:56;131.82;;;38.80;;
20970;SDS011;10644;48.834;10.088;2023-03-01T19:49:03;100.38;;;26.58;;
20970;SDS011;10644;48.834;10.088;2023-03-01T20:09:39;120.60;;;34.25;;
20970;SDS011;10644;48.834;10.088;2023-03-01T20:25:12;46.63;;;21.40;;
20970;SDS011;10644;48.834;10.088;2023-03-01T20:35:19;120.72;;;36.30;;
20970;SDS011;10644;48.834;10.088;2023-03-01T20:41:11;59.35;;;23.70;;
20970;SDS011;10644;48.834;10.088;2023-03-01T20:49:54;140.05;;;39.25;;
20970;SDS011;10644;48.834;10.088;2023-03-01T20:52:43;154.35;;;41.38;;
20970;SDS011;10644;48.834;10.088;2023-03-01T20:59:11;131.15;;;34.60;;
20970;SDS011;10644;48.834;10.088;2023-03-01T21:05:03;49.42;;;20.27;;
20970;SDS011;10644;48.834;10.088;2023-03-01T21:07:29;68.68;;;24.20;;
20970;SDS011;10644;48.834;10.088;2023-03-01T21:13:19;78.47;;;23.43;;
20970;SDS011;10644;48.834;10.088;2023-03-01T22:12:07;81.50;;;36.50;;
20970;SDS011;10644;48.834;10.088;2023-03-01T22:14:54;47.75;;;24.27;;
20970;SDS011;10644;48.834;10.088;2023-03-01T22:20:47;51.63;;;23.40;;
20970;SDS011;10644;48.834;10.088;2023-03-01T22:40:10;94.00;;;39.63;;
20970;SDS011;10644;48.834;10.088;2023-03-01T22:56:36;47.97;;;22.70;;
20970;SDS011;10644;48.834;10.088;2023-03-01T22:59:21;89.65;;;33.92;;
20970;SDS011;10644;48.834;10.088;2023-03-01T23:04:56;46.50;;;21.75;;
20970;SDS011;10644;48.834;10.088;2023-03-01T23:07:59;67.03;;;26.27;;
20970;SDS011;10644;48.834;10.088;2023-03-01T23:14:08;58.17;;;24.23;;
20970;SDS011;10644;48.834;10.088;2023-03-01T23:16:51;39.53;;;17.58;;
20970;SDS011;10644;48.834;10.088;2023-03-01T23:22:46;47.10;;;22.27;;
20970;SDS011;10644;48.834;10.088;2023-03-01T23:25:25;73.17;;;31.33;;
20970;SDS011;10644;48.834;10.088;2023-03-01T23:34:22;84.72;;;34.33;;
20970;SDS011;10644;48.834;10.088;2023-03-01T23:36:59;90.78;;;36.30;;
20970;SDS011;10644;48.834;10.088;2023-03-01T23:42:59;119.22;;;36.08;;
20970;SDS011;10644;48.834;10.088;2023-03-01T23:49:00;44.13;;;20.58;;
20970;SDS011;10644;48.834;10.088;2023-03-01T23:58:26;61.55;;;23.15;;
